sensor_id;sensor_type;location;lat;lon;timestamp;P1;durP1;ratioP1;P2;durP2;ratioP2
51048;SDS011;37084;55.228;36.450;2023-06-22T00:01:19;11.65;;;5.18;;
51048;SDS011;37084;55.228;36.450;2023-06-22T00:04:23;12.35;;;6.03;;
51048;SDS011;37084;55.228;36.450;2023-06-22T00:07:24;15.52;;;5.68;;
51048;SDS011;37084;55.228;36.450;2023-06-22T00:10:25;9.50;;;4.93;;
51048;SDS011;37084;55.228;36.450;2023-06-22T00:13:27;8.85;;;4.53;;
51048;SDS011;37084;55.228;36.450;2023-06-22T00:16:28;7.50;;;4.10;;
51048;SDS011;37084;55.228;36.450;2023-06-22T00:19:29;7.60;;;4.05;;
51048;SDS011;37084;55.228;36.450;2023-06-22T00:22:30;8.15;;;4.40;;
51048;SDS011;37084;55.228;36.450;2023-06-22T00:25:32;8.52;;;3.72;;
51048;SDS011;37084;55.228;36.450;2023-06-22T00:28:34;6.20;;;3.70;;
51048;SDS011;37084;55.228;36.450;2023-06-22T00:31:36;7.53;;;3.95;;
51048;SDS011;37084;55.228;36.450;2023-06-22T00:34:37;7.35;;;4.05;;
51048;SDS011;37084;55.228;36.450;2023-06-22T00:37:39;6.65;;;3.80;;
51048;SDS011;37084;55.228;36.450;2023-06-22T00:40:43;7.88;;;4.03;;
51048;SDS011;37084;55.228;36.450;2023-06-22T00:43:44;7.18;;;3.85;;
51048;SDS011;37084;55.228;36.450;2023-06-22T00:46:45;7.30;;;3.47;;
51048;SDS011;37084;55.228;36.450;2023-06-22T00:49:47;6.38;;;3.53;;
51048;SDS011;37084;55.228;36.450;2023-06-22T00:52:53;9.35;;;3.83;;
51048;SDS011;37084;55.228;36.450;2023-06-22T00:55:57;8.27;;;4.15;;
51048;SDS011;37084;55.228;36.450;2023-06-22T00:59:00;5.57;;;3.95;;
51048;SDS011;37084;55.228;36.450;2023-06-22T01:02:04;8.27;;;4.60;;
51048;SDS011;37084;55.228;36.450;2023-06-22T01:05:06;8.43;;;4.30;;
51048;SDS011;37084;55.228;36.450;2023-06-22T01:11:23;7.32;;;4.85;;
51048;SDS011;37084;55.228;36.450;2023-06-22T01:14:40;7.95;;;3.72;;
51048;SDS011;37084;55.228;36.450;2023-06-22T01:17:44;6.15;;;4.38;;
51048;SDS011;37084;55.228;36.450;2023-06-22T01:20:45;7.10;;;3.63;;
51048;SDS011;37084;55.228;36.450;2023-06-22T01:23:54;6.90;;;3.70;;
51048;SDS011;37084;55.228;36.450;2023-06-22T01:27:05;10.88;;;4.03;;
51048;SDS011;37084;55.228;36.450;2023-06-22T01:30:43;7.03;;;3.50;;
51048;SDS011;37084;55.228;36.450;2023-06-22T01:33:48;7.40;;;3.70;;
51048;SDS011;37084;55.228;36.450;2023-06-22T01:36:52;7.60;;;3.53;;
51048;SDS011;37084;55.228;36.450;2023-06-22T01:39:54;6.55;;;3.67;;
51048;SDS011;37084;55.228;36.450;2023-06-22T01:42:57;8.82;;;4.30;;
51048;SDS011;37084;55.228;36.450;2023-06-22T01:46:01;4.82;;;3.40;;
51048;SDS011;37084;55.228;36.450;2023-06-22T01:49:03;8.32;;;4.05;;
51048;SDS011;37084;55.228;36.450;2023-06-22T01:52:05;8.13;;;4.07;;
51048;SDS011;37084;55.228;36.450;2023-06-22T01:55:07;8.63;;;4.20;;
51048;SDS011;37084;55.228;36.450;2023-06-22T01:58:08;7.05;;;4.00;;
51048;SDS011;37084;55.228;36.450;2023-06-22T02:01:10;6.90;;;3.90;;
51048;SDS011;37084;55.228;36.450;2023-06-22T02:04:13;7.45;;;3.90;;
51048;SDS011;37084;55.228;36.450;2023-06-22T02:07:21;6.82;;;3.92;;
51048;SDS011;37084;55.228;36.450;2023-06-22T02:10:24;8.43;;;4.18;;
51048;SDS011;37084;55.228;36.450;2023-06-22T02:13:26;5.63;;;3.20;;
51048;SDS011;37084;55.228;36.450;2023-06-22T02:16:30;6.60;;;3.70;;
51048;SDS011;37084;55.228;36.450;2023-06-22T02:19:32;6.32;;;4.10;;
51048;SDS011;37084;55.228;36.450;2023-06-22T02:22:36;8.73;;;3.72;;
51048;SDS011;37084;55.228;36.450;2023-06-22T02:25:37;8.85;;;4.18;;
51048;SDS011;37084;55.228;36.450;2023-06-22T02:28:40;7.00;;;4.07;;
51048;SDS011;37084;55.228;36.450;2023-06-22T02:31:41;6.13;;;3.85;;
51048;SDS011;37084;55.228;36.450;2023-06-22T02:34:43;6.03;;;3.33;;
51048;SDS011;37084;55.228;36.450;2023-06-22T02:37:51;6.40;;;3.65;;
51048;SDS011;37084;55.228;36.450;2023-06-22T02:40:52;6.10;;;3.17;;
51048;SDS011;37084;55.228;36.450;2023-06-22T02:43:53;5.30;;;3.50;;
51048;SDS011;37084;55.228;36.450;2023-06-22T02:46:55;6.78;;;2.90;;
51048;SDS011;37084;55.228;36.450;2023-06-22T02:49:56;7.00;;;3.42;;
51048;SDS011;37084;55.228;36.450;2023-06-22T02:52:59;6.47;;;3.47;;
51048;SDS011;37084;55.228;36.450;2023-06-22T02:56:03;5.35;;;3.03;;
51048;SDS011;37084;55.228;36.450;2023-06-22T02:59:11;6.00;;;3.13;;
51048;SDS011;37084;55.228;36.450;2023-06-22T03:02:13;5.70;;;3.72;;
51048;SDS011;37084;55.228;36.450;2023-06-22T03:05:16;6.65;;;3.28;;
51048;SDS011;37084;55.228;36.450;2023-06-22T03:08:20;9.18;;;4.00;;
51048;SDS011;37084;55.228;36.450;2023-06-22T03:11:21;7.47;;;4.03;;
51048;SDS011;37084;55.228;36.450;2023-06-22T03:14:22;6.95;;;3.80;;
51048;SDS011;37084;55.228;36.450;2023-06-22T03:17:26;6.78;;;3.58;;
51048;SDS011;37084;55.228;36.450;2023-06-22T03:20:27;6.20;;;3.42;;
51048;SDS011;37084;55.228;36.450;2023-06-22T03:23:34;5.65;;;3.60;;
51048;SDS011;37084;55.228;36.450;2023-06-22T03:26:35;5.50;;;3.42;;
51048;SDS011;37084;55.228;36.450;2023-06-22T03:29:36;6.15;;;3.60;;
51048;SDS011;37084;55.228;36.450;2023-06-22T03:32:37;6.78;;;3.58;;
51048;SDS011;37084;55.228;36.450;2023-06-22T03:35:41;6.32;;;3.42;;
51048;SDS011;37084;55.228;36.450;2023-06-22T03:38:42;6.13;;;3.60;;
51048;SDS011;37084;55.228;36.450;2023-06-22T03:41:44;6.40;;;3.90;;
51048;SDS011;37084;55.228;36.450;2023-06-22T03:44:45;8.07;;;3.67;;
51048;SDS011;37084;55.228;36.450;2023-06-22T03:47:47;6.07;;;3.60;;
51048;SDS011;37084;55.228;36.450;2023-06-22T03:50:48;6.43;;;3.45;;
51048;SDS011;37084;55.228;36.450;2023-06-22T03:53:50;4.80;;;3.35;;
51048;SDS011;37084;55.228;36.450;2023-06-22T03:56:51;5.28;;;3.15;;
51048;SDS011;37084;55.228;36.450;2023-06-22T03:59:53;7.78;;;3.70;;
51048;SDS011;37084;55.228;36.450;2023-06-22T04:02:57;6.80;;;3.75;;
51048;SDS011;37084;55.228;36.450;2023-06-22T04:05:58;6.38;;;3.75;;
51048;SDS011;37084;55.228;36.450;2023-06-22T04:08:59;7.93;;;3.60;;
51048;SDS011;37084;55.228;36.450;2023-06-22T04:12:01;5.55;;;3.72;;
51048;SDS011;37084;55.228;36.450;2023-06-22T04:15:03;6.95;;;3.25;;
51048;SDS011;37084;55.228;36.450;2023-06-22T04:18:07;5.25;;;3.13;;
51048;SDS011;37084;55.228;36.450;2023-06-22T04:21:08;8.77;;;3.20;;
51048;SDS011;37084;55.228;36.450;2023-06-22T04:24:11;8.43;;;3.40;;
51048;SDS011;37084;55.228;36.450;2023-06-22T04:27:12;6.05;;;3.53;;
51048;SDS011;37084;55.228;36.450;2023-06-22T04:30:13;4.53;;;2.72;;
51048;SDS011;37084;55.228;36.450;2023-06-22T04:36:19;6.30;;;3.15;;
51048;SDS011;37084;55.228;36.450;2023-06-22T04:39:21;4.57;;;2.83;;
51048;SDS011;37084;55.228;36.450;2023-06-22T04:42:23;3.67;;;2.65;;
51048;SDS011;37084;55.228;36.450;2023-06-22T04:45:24;5.30;;;2.78;;
51048;SDS011;37084;55.228;36.450;2023-06-22T04:48:25;5.88;;;2.83;;
51048;SDS011;37084;55.228;36.450;2023-06-22T04:51:26;5.35;;;3.10;;
51048;SDS011;37084;55.228;36.450;2023-06-22T04:54:32;6.35;;;2.97;;
51048;SDS011;37084;55.228;36.450;2023-06-22T04:57:34;4.82;;;3.25;;
51048;SDS011;37084;55.228;36.450;2023-06-22T05:00:36;3.85;;;2.50;;
51048;SDS011;37084;55.228;36.450;2023-06-22T05:03:37;4.70;;;2.70;;
51048;SDS011;37084;55.228;36.450;2023-06-22T05:06:42;4.65;;;2.60;;
51048;SDS011;37084;55.228;36.450;2023-06-22T05:09:43;5.15;;;2.75;;
51048;SDS011;37084;55.228;36.450;2023-06-22T05:12:45;5.03;;;2.55;;
51048;SDS011;37084;55.228;36.450;2023-06-22T05:15:46;5.40;;;2.75;;
51048;SDS011;37084;55.228;36.450;2023-06-22T05:18:48;5.07;;;2.90;;
51048;SDS011;37084;55.228;36.450;2023-06-22T05:21:49;4.00;;;2.75;;
51048;SDS011;37084;55.228;36.450;2023-06-22T05:24:50;5.15;;;2.88;;
51048;SDS011;37084;55.228;36.450;2023-06-22T05:27:51;4.65;;;2.50;;
51048;SDS011;37084;55.228;36.450;2023-06-22T05:30:53;5.63;;;2.45;;
51048;SDS011;37084;55.228;36.450;2023-06-22T05:33:54;6.55;;;2.58;;
51048;SDS011;37084;55.228;36.450;2023-06-22T05:36:56;5.88;;;2.20;;
51048;SDS011;37084;55.228;36.450;2023-06-22T05:39:59;3.92;;;2.55;;
51048;SDS011;37084;55.228;36.450;2023-06-22T05:43:00;5.00;;;2.60;;
51048;SDS011;37084;55.228;36.450;2023-06-22T05:46:03;4.10;;;2.42;;
51048;SDS011;37084;55.228;36.450;2023-06-22T05:49:05;3.97;;;2.47;;
51048;SDS011;37084;55.228;36.450;2023-06-22T05:52:06;4.57;;;2.63;;
51048;SDS011;37084;55.228;36.450;2023-06-22T05:55:07;5.63;;;2.72;;
51048;SDS011;37084;55.228;36.450;2023-06-22T05:58:09;4.85;;;2.45;;
51048;SDS011;37084;55.228;36.450;2023-06-22T06:01:11;5.47;;;2.38;;
51048;SDS011;37084;55.228;36.450;2023-06-22T06:04:12;5.40;;;2.03;;
51048;SDS011;37084;55.228;36.450;2023-06-22T06:07:13;4.50;;;2.33;;
51048;SDS011;37084;55.228;36.450;2023-06-22T06:10:15;4.82;;;2.10;;
51048;SDS011;37084;55.228;36.450;2023-06-22T06:13:16;2.90;;;1.85;;
51048;SDS011;37084;55.228;36.450;2023-06-22T06:16:17;5.70;;;2.83;;
51048;SDS011;37084;55.228;36.450;2023-06-22T06:19:18;3.95;;;2.45;;
51048;SDS011;37084;55.228;36.450;2023-06-22T06:22:19;3.70;;;2.55;;
51048;SDS011;37084;55.228;36.450;2023-06-22T06:25:22;5.03;;;2.35;;
51048;SDS011;37084;55.228;36.450;2023-06-22T06:28:24;3.22;;;2.15;;
51048;SDS011;37084;55.228;36.450;2023-06-22T06:31:25;6.32;;;2.50;;
51048;SDS011;37084;55.228;36.450;2023-06-22T06:37:30;4.68;;;2.20;;
51048;SDS011;37084;55.228;36.450;2023-06-22T06:40:31;3.83;;;2.40;;
51048;SDS011;37084;55.228;36.450;2023-06-22T06:43:33;3.88;;;2.38;;
51048;SDS011;37084;55.228;36.450;2023-06-22T06:46:34;3.83;;;2.70;;
51048;SDS011;37084;55.228;36.450;2023-06-22T06:49:35;4.45;;;2.25;;
51048;SDS011;37084;55.228;36.450;2023-06-22T06:52:37;4.20;;;2.58;;
51048;SDS011;37084;55.228;36.450;2023-06-22T06:55:38;4.20;;;2.55;;
51048;SDS011;37084;55.228;36.450;2023-06-22T06:58:43;5.30;;;2.40;;
51048;SDS011;37084;55.228;36.450;2023-06-22T07:01:45;4.95;;;2.67;;
51048;SDS011;37084;55.228;36.450;2023-06-22T07:04:49;4.85;;;2.80;;
51048;SDS011;37084;55.228;36.450;2023-06-22T07:07:53;3.53;;;2.25;;
51048;SDS011;37084;55.228;36.450;2023-06-22T07:10:55;4.82;;;2.72;;
51048;SDS011;37084;55.228;36.450;2023-06-22T07:13:56;4.47;;;2.30;;
51048;SDS011;37084;55.228;36.450;2023-06-22T07:16:58;3.58;;;2.63;;
51048;SDS011;37084;55.228;36.450;2023-06-22T07:20:00;4.95;;;2.92;;
51048;SDS011;37084;55.228;36.450;2023-06-22T07:23:05;3.08;;;2.55;;
51048;SDS011;37084;55.228;36.450;2023-06-22T07:26:06;4.68;;;2.85;;
51048;SDS011;37084;55.228;36.450;2023-06-22T07:29:09;3.80;;;2.50;;
51048;SDS011;37084;55.228;36.450;2023-06-22T07:32:10;5.05;;;2.75;;
51048;SDS011;37084;55.228;36.450;2023-06-22T07:35:11;5.72;;;2.92;;
51048;SDS011;37084;55.228;36.450;2023-06-22T07:38:17;5.45;;;3.10;;
51048;SDS011;37084;55.228;36.450;2023-06-22T07:41:18;4.50;;;3.00;;
51048;SDS011;37084;55.228;36.450;2023-06-22T07:44:20;5.10;;;2.80;;
51048;SDS011;37084;55.228;36.450;2023-06-22T07:47:22;3.50;;;2.60;;
51048;SDS011;37084;55.228;36.450;2023-06-22T07:50:28;4.60;;;2.80;;
51048;SDS011;37084;55.228;36.450;2023-06-22T07:53:29;3.70;;;2.65;;
51048;SDS011;37084;55.228;36.450;2023-06-22T07:56:30;3.70;;;2.60;;
51048;SDS011;37084;55.228;36.450;2023-06-22T07:59:33;4.55;;;2.92;;
51048;SDS011;37084;55.228;36.450;2023-06-22T08:02:35;3.88;;;2.78;;
51048;SDS011;37084;55.228;36.450;2023-06-22T08:05:38;3.38;;;2.47;;
51048;SDS011;37084;55.228;36.450;2023-06-22T08:08:39;4.38;;;2.72;;
51048;SDS011;37084;55.228;36.450;2023-06-22T08:11:40;5.20;;;2.92;;
51048;SDS011;37084;55.228;36.450;2023-06-22T08:14:42;4.63;;;3.00;;
51048;SDS011;37084;55.228;36.450;2023-06-22T08:17:46;6.85;;;3.30;;
51048;SDS011;37084;55.228;36.450;2023-06-22T08:20:48;4.68;;;3.03;;
51048;SDS011;37084;55.228;36.450;2023-06-22T08:23:53;4.85;;;2.80;;
51048;SDS011;37084;55.228;36.450;2023-06-22T08:26:54;4.80;;;3.17;;
51048;SDS011;37084;55.228;36.450;2023-06-22T08:29:56;4.22;;;2.83;;
51048;SDS011;37084;55.228;36.450;2023-06-22T08:32:59;5.60;;;3.20;;
51048;SDS011;37084;55.228;36.450;2023-06-22T08:36:00;4.85;;;2.72;;
51048;SDS011;37084;55.228;36.450;2023-06-22T08:39:02;5.95;;;3.22;;
51048;SDS011;37084;55.228;36.450;2023-06-22T08:42:04;4.97;;;3.20;;
51048;SDS011;37084;55.228;36.450;2023-06-22T08:45:07;5.35;;;3.42;;
51048;SDS011;37084;55.228;36.450;2023-06-22T08:48:10;5.43;;;3.30;;
51048;SDS011;37084;55.228;36.450;2023-06-22T08:51:12;4.32;;;2.97;;
51048;SDS011;37084;55.228;36.450;2023-06-22T08:54:14;4.72;;;3.20;;
51048;SDS011;37084;55.228;36.450;2023-06-22T08:57:16;5.80;;;3.00;;
51048;SDS011;37084;55.228;36.450;2023-06-22T09:00:17;4.43;;;3.17;;
51048;SDS011;37084;55.228;36.450;2023-06-22T09:03:20;4.07;;;3.33;;
51048;SDS011;37084;55.228;36.450;2023-06-22T09:06:22;5.05;;;3.50;;
51048;SDS011;37084;55.228;36.450;2023-06-22T09:09:23;4.68;;;2.80;;
51048;SDS011;37084;55.228;36.450;2023-06-22T09:12:26;4.45;;;3.20;;
51048;SDS011;37084;55.228;36.450;2023-06-22T09:15:34;4.85;;;3.40;;
51048;SDS011;37084;55.228;36.450;2023-06-22T09:18:35;5.00;;;3.42;;
51048;SDS011;37084;55.228;36.450;2023-06-22T09:21:37;5.18;;;3.13;;
51048;SDS011;37084;55.228;36.450;2023-06-22T09:24:38;3.42;;;2.90;;
51048;SDS011;37084;55.228;36.450;2023-06-22T09:27:39;3.55;;;2.80;;
51048;SDS011;37084;55.228;36.450;2023-06-22T09:30:42;6.55;;;3.67;;
51048;SDS011;37084;55.228;36.450;2023-06-22T09:33:44;7.93;;;3.67;;
51048;SDS011;37084;55.228;36.450;2023-06-22T09:36:46;4.10;;;3.15;;
51048;SDS011;37084;55.228;36.450;2023-06-22T09:39:48;4.22;;;3.05;;
51048;SDS011;37084;55.228;36.450;2023-06-22T09:42:49;4.75;;;3.22;;
51048;SDS011;37084;55.228;36.450;2023-06-22T09:45:50;5.88;;;3.78;;
51048;SDS011;37084;55.228;36.450;2023-06-22T09:48:52;4.68;;;3.17;;
51048;SDS011;37084;55.228;36.450;2023-06-22T09:51:53;4.07;;;3.63;;
51048;SDS011;37084;55.228;36.450;2023-06-22T09:54:54;4.35;;;3.17;;
51048;SDS011;37084;55.228;36.450;2023-06-22T09:57:55;4.75;;;3.10;;
51048;SDS011;37084;55.228;36.450;2023-06-22T10:00:57;3.80;;;3.40;;
51048;SDS011;37084;55.228;36.450;2023-06-22T10:03:58;3.88;;;3.42;;
51048;SDS011;37084;55.228;36.450;2023-06-22T10:07:01;5.53;;;3.40;;
51048;SDS011;37084;55.228;36.450;2023-06-22T10:10:04;5.18;;;3.50;;
51048;SDS011;37084;55.228;36.450;2023-06-22T10:13:09;4.97;;;3.20;;
51048;SDS011;37084;55.228;36.450;2023-06-22T10:16:14;6.10;;;3.47;;
51048;SDS011;37084;55.228;36.450;2023-06-22T10:19:15;3.80;;;2.95;;
51048;SDS011;37084;55.228;36.450;2023-06-22T10:22:17;4.15;;;3.08;;
51048;SDS011;37084;55.228;36.450;2023-06-22T10:25:18;4.20;;;3.80;;
51048;SDS011;37084;55.228;36.450;2023-06-22T10:28:21;4.45;;;3.53;;
51048;SDS011;37084;55.228;36.450;2023-06-22T10:31:23;5.20;;;3.42;;
51048;SDS011;37084;55.228;36.450;2023-06-22T10:34:25;3.58;;;3.13;;
51048;SDS011;37084;55.228;36.450;2023-06-22T10:37:26;4.97;;;3.40;;
51048;SDS011;37084;55.228;36.450;2023-06-22T10:40:30;4.45;;;3.42;;
51048;SDS011;37084;55.228;36.450;2023-06-22T10:43:32;5.05;;;3.53;;
51048;SDS011;37084;55.228;36.450;2023-06-22T10:46:34;4.70;;;3.67;;
51048;SDS011;37084;55.228;36.450;2023-06-22T10:49:39;4.22;;;3.30;;
51048;SDS011;37084;55.228;36.450;2023-06-22T10:52:41;5.28;;;3.50;;
51048;SDS011;37084;55.228;36.450;2023-06-22T10:55:43;5.88;;;3.60;;
51048;SDS011;37084;55.228;36.450;2023-06-22T10:58:45;4.15;;;3.00;;
51048;SDS011;37084;55.228;36.450;2023-06-22T11:01:46;3.95;;;3.15;;
51048;SDS011;37084;55.228;36.450;2023-06-22T11:04:47;4.13;;;3.15;;
51048;SDS011;37084;55.228;36.450;2023-06-22T11:07:50;4.72;;;3.38;;
51048;SDS011;37084;55.228;36.450;2023-06-22T11:10:52;3.60;;;2.90;;
51048;SDS011;37084;55.228;36.450;2023-06-22T11:13:53;4.35;;;3.25;;
51048;SDS011;37084;55.228;36.450;2023-06-22T11:16:57;4.72;;;3.70;;
51048;SDS011;37084;55.228;36.450;2023-06-22T11:20:00;4.53;;;3.10;;
51048;SDS011;37084;55.228;36.450;2023-06-22T11:23:01;4.80;;;3.90;;
51048;SDS011;37084;55.228;36.450;2023-06-22T11:26:02;4.82;;;3.70;;
51048;SDS011;37084;55.228;36.450;2023-06-22T11:29:05;5.18;;;3.10;;
51048;SDS011;37084;55.228;36.450;2023-06-22T11:32:06;4.28;;;3.10;;
51048;SDS011;37084;55.228;36.450;2023-06-22T11:35:08;7.38;;;3.95;;
51048;SDS011;37084;55.228;36.450;2023-06-22T11:38:15;4.90;;;3.40;;
51048;SDS011;37084;55.228;36.450;2023-06-22T11:41:17;6.25;;;3.40;;
51048;SDS011;37084;55.228;36.450;2023-06-22T11:44:21;4.60;;;3.80;;
51048;SDS011;37084;55.228;36.450;2023-06-22T11:47:23;5.00;;;3.13;;
51048;SDS011;37084;55.228;36.450;2023-06-22T11:50:25;4.05;;;3.65;;
51048;SDS011;37084;55.228;36.450;2023-06-22T11:53:27;4.95;;;3.85;;
51048;SDS011;37084;55.228;36.450;2023-06-22T11:56:28;4.03;;;2.90;;
51048;SDS011;37084;55.228;36.450;2023-06-22T11:59:31;4.80;;;3.72;;
51048;SDS011;37084;55.228;36.450;2023-06-22T12:02:32;4.55;;;3.40;;
51048;SDS011;37084;55.228;36.450;2023-06-22T12:05:33;4.72;;;3.58;;
51048;SDS011;37084;55.228;36.450;2023-06-22T12:08:35;4.45;;;3.30;;
51048;SDS011;37084;55.228;36.450;2023-06-22T12:11:36;5.80;;;3.45;;
51048;SDS011;37084;55.228;36.450;2023-06-22T12:14:37;6.93;;;3.33;;
51048;SDS011;37084;55.228;36.450;2023-06-22T12:17:39;4.53;;;3.35;;
51048;SDS011;37084;55.228;36.450;2023-06-22T12:20:41;4.65;;;3.50;;
51048;SDS011;37084;55.228;36.450;2023-06-22T12:23:43;4.45;;;3.72;;
51048;SDS011;37084;55.228;36.450;2023-06-22T12:26:45;5.75;;;3.53;;
51048;SDS011;37084;55.228;36.450;2023-06-22T12:29:46;5.45;;;4.10;;
51048;SDS011;37084;55.228;36.450;2023-06-22T12:32:48;4.80;;;3.35;;
51048;SDS011;37084;55.228;36.450;2023-06-22T12:35:50;5.15;;;3.15;;
51048;SDS011;37084;55.228;36.450;2023-06-22T12:38:51;4.30;;;3.60;;
51048;SDS011;37084;55.228;36.450;2023-06-22T12:41:52;3.92;;;3.53;;
51048;SDS011;37084;55.228;36.450;2023-06-22T12:44:53;4.30;;;3.25;;
51048;SDS011;37084;55.228;36.450;2023-06-22T12:47:56;7.93;;;4.00;;
51048;SDS011;37084;55.228;36.450;2023-06-22T12:50:58;7.22;;;4.47;;
51048;SDS011;37084;55.228;36.450;2023-06-22T12:54:01;6.97;;;4.30;;
51048;SDS011;37084;55.228;36.450;2023-06-22T12:57:02;5.20;;;3.78;;
51048;SDS011;37084;55.228;36.450;2023-06-22T13:00:04;7.80;;;3.92;;
51048;SDS011;37084;55.228;36.450;2023-06-22T13:03:09;5.25;;;3.83;;
51048;SDS011;37084;55.228;36.450;2023-06-22T13:06:10;4.93;;;2.85;;
51048;SDS011;37084;55.228;36.450;2023-06-22T13:09:11;5.13;;;3.78;;
51048;SDS011;37084;55.228;36.450;2023-06-22T13:12:16;5.82;;;3.78;;
51048;SDS011;37084;55.228;36.450;2023-06-22T13:15:17;4.20;;;3.65;;
51048;SDS011;37084;55.228;36.450;2023-06-22T13:18:18;5.07;;;3.90;;
51048;SDS011;37084;55.228;36.450;2023-06-22T13:21:27;4.90;;;3.75;;
51048;SDS011;37084;55.228;36.450;2023-06-22T13:24:45;4.63;;;3.35;;
51048;SDS011;37084;55.228;36.450;2023-06-22T13:27:49;4.55;;;3.72;;
51048;SDS011;37084;55.228;36.450;2023-06-22T13:30:59;5.15;;;3.83;;
51048;SDS011;37084;55.228;36.450;2023-06-22T13:34:03;5.90;;;3.85;;
51048;SDS011;37084;55.228;36.450;2023-06-22T13:37:14;28.83;;;7.72;;
51048;SDS011;37084;55.228;36.450;2023-06-22T13:40:20;15.95;;;6.50;;
51048;SDS011;37084;55.228;36.450;2023-06-22T13:43:26;5.13;;;3.80;;
51048;SDS011;37084;55.228;36.450;2023-06-22T13:46:28;43.25;;;9.25;;
51048;SDS011;37084;55.228;36.450;2023-06-22T13:49:29;5.53;;;4.13;;
51048;SDS011;37084;55.228;36.450;2023-06-22T13:52:32;6.32;;;3.92;;
51048;SDS011;37084;55.228;36.450;2023-06-22T13:55:35;6.53;;;3.95;;
51048;SDS011;37084;55.228;36.450;2023-06-22T13:58:36;7.60;;;4.25;;
51048;SDS011;37084;55.228;36.450;2023-06-22T14:01:38;5.63;;;3.72;;
51048;SDS011;37084;55.228;36.450;2023-06-22T14:04:40;6.97;;;4.15;;
51048;SDS011;37084;55.228;36.450;2023-06-22T14:07:43;5.28;;;4.10;;
51048;SDS011;37084;55.228;36.450;2023-06-22T14:10:45;5.22;;;3.80;;
51048;SDS011;37084;55.228;36.450;2023-06-22T14:13:46;5.25;;;3.97;;
51048;SDS011;37084;55.228;36.450;2023-06-22T14:16:49;4.97;;;3.83;;
51048;SDS011;37084;55.228;36.450;2023-06-22T14:19:50;5.95;;;4.15;;
51048;SDS011;37084;55.228;36.450;2023-06-22T14:22:58;6.70;;;4.30;;
51048;SDS011;37084;55.228;36.450;2023-06-22T14:26:00;5.70;;;4.10;;
51048;SDS011;37084;55.228;36.450;2023-06-22T14:29:02;6.22;;;4.10;;
51048;SDS011;37084;55.228;36.450;2023-06-22T14:32:05;7.13;;;4.30;;
51048;SDS011;37084;55.228;36.450;2023-06-22T14:35:07;6.22;;;4.05;;
51048;SDS011;37084;55.228;36.450;2023-06-22T14:38:11;6.45;;;4.43;;
51048;SDS011;37084;55.228;36.450;2023-06-22T14:41:15;6.28;;;4.63;;
51048;SDS011;37084;55.228;36.450;2023-06-22T14:44:18;6.15;;;4.13;;
51048;SDS011;37084;55.228;36.450;2023-06-22T14:47:20;7.07;;;4.10;;
51048;SDS011;37084;55.228;36.450;2023-06-22T14:53:25;5.25;;;3.92;;
51048;SDS011;37084;55.228;36.450;2023-06-22T14:56:28;6.13;;;4.55;;
51048;SDS011;37084;55.228;36.450;2023-06-22T14:59:36;6.13;;;4.25;;
51048;SDS011;37084;55.228;36.450;2023-06-22T15:02:37;6.13;;;3.92;;
51048;SDS011;37084;55.228;36.450;2023-06-22T15:05:43;6.00;;;4.00;;
51048;SDS011;37084;55.228;36.450;2023-06-22T15:08:44;7.75;;;4.55;;
51048;SDS011;37084;55.228;36.450;2023-06-22T15:11:48;5.43;;;4.35;;
51048;SDS011;37084;55.228;36.450;2023-06-22T15:14:50;6.15;;;4.43;;
51048;SDS011;37084;55.228;36.450;2023-06-22T15:17:51;6.50;;;4.25;;
51048;SDS011;37084;55.228;36.450;2023-06-22T15:20:54;5.85;;;4.20;;
51048;SDS011;37084;55.228;36.450;2023-06-22T15:23:56;6.18;;;4.57;;
51048;SDS011;37084;55.228;36.450;2023-06-22T15:26:59;5.32;;;4.15;;
51048;SDS011;37084;55.228;36.450;2023-06-22T15:30:01;7.28;;;4.63;;
51048;SDS011;37084;55.228;36.450;2023-06-22T15:33:07;5.80;;;4.55;;
51048;SDS011;37084;55.228;36.450;2023-06-22T15:36:11;7.18;;;4.53;;
51048;SDS011;37084;55.228;36.450;2023-06-22T15:39:13;5.43;;;3.88;;
51048;SDS011;37084;55.228;36.450;2023-06-22T15:42:15;6.88;;;4.50;;
51048;SDS011;37084;55.228;36.450;2023-06-22T15:45:16;5.53;;;4.63;;
51048;SDS011;37084;55.228;36.450;2023-06-22T15:48:18;6.63;;;4.18;;
51048;SDS011;37084;55.228;36.450;2023-06-22T15:51:20;6.18;;;4.47;;
51048;SDS011;37084;55.228;36.450;2023-06-22T15:54:23;6.95;;;4.55;;
51048;SDS011;37084;55.228;36.450;2023-06-22T15:57:25;6.32;;;4.22;;
51048;SDS011;37084;55.228;36.450;2023-06-22T16:00:27;7.13;;;4.55;;
51048;SDS011;37084;55.228;36.450;2023-06-22T16:03:30;6.53;;;4.55;;
51048;SDS011;37084;55.228;36.450;2023-06-22T16:06:33;8.88;;;4.28;;
51048;SDS011;37084;55.228;36.450;2023-06-22T16:09:37;6.07;;;4.38;;
51048;SDS011;37084;55.228;36.450;2023-06-22T16:12:41;5.50;;;4.68;;
51048;SDS011;37084;55.228;36.450;2023-06-22T16:15:43;7.15;;;4.25;;
51048;SDS011;37084;55.228;36.450;2023-06-22T16:18:47;7.15;;;4.60;;
51048;SDS011;37084;55.228;36.450;2023-06-22T16:21:50;7.50;;;4.35;;
51048;SDS011;37084;55.228;36.450;2023-06-22T16:24:52;6.25;;;4.57;;
51048;SDS011;37084;55.228;36.450;2023-06-22T16:27:54;6.30;;;4.50;;
51048;SDS011;37084;55.228;36.450;2023-06-22T16:30:58;7.53;;;4.60;;
51048;SDS011;37084;55.228;36.450;2023-06-22T16:34:01;6.50;;;4.55;;
51048;SDS011;37084;55.228;36.450;2023-06-22T16:37:03;6.45;;;4.60;;
51048;SDS011;37084;55.228;36.450;2023-06-22T16:40:05;9.30;;;5.40;;
51048;SDS011;37084;55.228;36.450;2023-06-22T16:43:10;7.63;;;5.40;;
51048;SDS011;37084;55.228;36.450;2023-06-22T16:46:12;7.18;;;5.05;;
51048;SDS011;37084;55.228;36.450;2023-06-22T16:49:15;12.13;;;5.07;;
51048;SDS011;37084;55.228;36.450;2023-06-22T16:52:16;9.55;;;5.72;;
51048;SDS011;37084;55.228;36.450;2023-06-22T16:55:17;7.53;;;4.95;;
51048;SDS011;37084;55.228;36.450;2023-06-22T16:58:23;7.95;;;5.07;;
51048;SDS011;37084;55.228;36.450;2023-06-22T17:01:25;7.63;;;4.93;;
51048;SDS011;37084;55.228;36.450;2023-06-22T17:04:29;9.70;;;4.95;;
51048;SDS011;37084;55.228;36.450;2023-06-22T17:07:32;7.30;;;4.82;;
51048;SDS011;37084;55.228;36.450;2023-06-22T17:10:34;7.32;;;4.90;;
51048;SDS011;37084;55.228;36.450;2023-06-22T17:13:37;8.93;;;5.15;;
51048;SDS011;37084;55.228;36.450;2023-06-22T17:16:40;9.05;;;5.05;;
51048;SDS011;37084;55.228;36.450;2023-06-22T17:19:47;8.35;;;5.13;;
51048;SDS011;37084;55.228;36.450;2023-06-22T17:22:48;8.95;;;4.97;;
51048;SDS011;37084;55.228;36.450;2023-06-22T17:28:55;7.68;;;4.80;;
51048;SDS011;37084;55.228;36.450;2023-06-22T17:32:05;14.65;;;5.35;;
51048;SDS011;37084;55.228;36.450;2023-06-22T17:35:09;9.05;;;4.90;;
51048;SDS011;37084;55.228;36.450;2023-06-22T17:38:20;6.38;;;5.03;;
51048;SDS011;37084;55.228;36.450;2023-06-22T17:41:31;7.55;;;4.93;;
51048;SDS011;37084;55.228;36.450;2023-06-22T17:44:36;9.68;;;5.50;;
51048;SDS011;37084;55.228;36.450;2023-06-22T17:47:41;8.65;;;5.43;;
51048;SDS011;37084;55.228;36.450;2023-06-22T17:50:47;9.32;;;5.00;;
51048;SDS011;37084;55.228;36.450;2023-06-22T17:53:52;9.80;;;5.57;;
51048;SDS011;37084;55.228;36.450;2023-06-22T17:56:56;13.25;;;5.68;;
51048;SDS011;37084;55.228;36.450;2023-06-22T18:00:02;9.73;;;5.22;;
51048;SDS011;37084;55.228;36.450;2023-06-22T18:03:14;8.95;;;5.25;;
51048;SDS011;37084;55.228;36.450;2023-06-22T18:06:17;9.50;;;5.63;;
51048;SDS011;37084;55.228;36.450;2023-06-22T18:09:18;9.05;;;5.95;;
51048;SDS011;37084;55.228;36.450;2023-06-22T18:12:22;11.93;;;5.78;;
51048;SDS011;37084;55.228;36.450;2023-06-22T18:15:26;10.02;;;6.03;;
51048;SDS011;37084;55.228;36.450;2023-06-22T18:18:28;8.05;;;6.10;;